Atkinson, NE

10:57 AM CDT on May 05, 2015 (GMT -0500)
Sharp | | Change Station
CLOSE
Current Station
Airport
Location: Ord,
Elevation: 2070 ft
Nearby Weather Stations

Elev 2070 ft 41.62 °N, 98.95 °W | Updated 4 minutes ago

Fog
Fog
58 °F
Feels Like 58 °F
N
8
Wind Variable Wind from ESE

Today
High -- | Low -- °F
--% Chance of Precip.
Yesterday
High -- | Low -- °F
Precip. -- in
6:25 AM 8:40 PM
Full, 98% visible
Pressure 30.05 in
Visibility 5.0 miles
Clouds Overcast 400 ft
Dew Point 56 °F
Humidity 93%
Rainfall 0.01 in
Snow Depth Not available.
UV 2 out of 12
Pollen 9.30 out of 12
Air Quality Not available.
Flu Activity Local Activity
METAR KODX 051553Z AUTO 11007KT 5SM -RA BR OVC004 14/13 A3004 RMK AO2 RAB50 SLP174 P0000 T01440133

More Conditions Fewer Conditions

Pressure 30.05 in
Visibility 5.0 miles
Clouds Overcast 400 ft
Dew Point 56 °F
Humidity 93%
Rainfall 0.01 in
Snow Depth Not available.
UV 2 out of 12
Pollen 9.30 out of 12
Air Quality Not available.
Flu Activity Local Activity
METAR KODX 051553Z AUTO 11007KT 5SM -RA BR OVC004 14/13 A3004 RMK AO2 RAB50 SLP174 P0000 T01440133

More Conditions Fewer Conditions

Nowcast | as of 9:17 am CDT on May 5, 2015

slowly improving visibilities this morning... Areas of fog and drizzle are being reported across most of southwest and north central Nebraska. A wide range of visibilities can be expected and will likely vary drastically over a very short distance. If you are traveling in the area this morning be prepared for low visibilities...locally one mile or less. Visibilities are improving and will continue to slowly improve through noon.

×

10-Day Weather Forecast

Almanac

Astronomy

May. 05, 2015 Rise Set
Actual Time
Civil Twilight
Nautical Twilight
Astronomical Twilight
Moon
Length of Visible Light
Length of Day
Tomorrow will be .
, % of the Moon is Illuminated

Today's Extremes

State Highs State Lows

Community

WunderPhotos

Upload Photos

1,818,922 photos uploaded!

WunderBlogs® & News

Nearby

Air Quality

  Air Quality AQ Index Pollutant
Not available.

Snow Depth

Station Depth Elevation

Earthquake Activity

City Distance Mag. Time & Date
Minimum magnitude displayed is 2.5.

Coastal Water Temperatures

Place Temperature

Stations

Nearby Weather Stations

Station Location Temp. Windchill Dew Point Humidity Wind Precip. Elev Updated Type